Time;durP1;ratioP1;P1;durP2;ratioP2;P2;SDS_P1;SDS_P2;PMS_P1;PMS_P2;Temp;Humidity;BMP_temperature;BMP_pressure;BME280_temperature;BME280_humidity;BME280_pressure;Samples;Min_cycle;Max_cycle;Signal;HPM_P1;HPM_P2
2021/12/28 00:00:02;;;;;;;20.17;14.73;;;-3.40;99.90;;;;;;5072172;28;20076;-74
2021/12/28 00:02:29;;;;;;;30.40;19.23;;;-3.40;99.90;;;;;;5072247;28;20049;-74
2021/12/28 00:04:57;;;;;;;23.13;18.20;;;-3.50;99.90;;;;;;5071661;28;20102;-76
2021/12/28 00:07:23;;;;;;;31.30;15.53;;;-3.50;99.90;;;;;;5072031;28;20048;-76
2021/12/28 00:09:50;;;;;;;20.43;15.13;;;-3.50;99.90;;;;;;5072424;28;20044;-76
2021/12/28 00:12:17;;;;;;;31.90;18.33;;;-3.50;99.90;;;;;;5072189;28;20467;-76
2021/12/28 00:15:02;;;;;;;23.03;17.60;;;-3.60;99.90;;;;;;5071561;28;20049;-76
2021/12/28 00:20:15;;;;;;;20.20;12.80;;;-3.60;99.90;;;;;;5072074;28;20122;-77
2021/12/28 00:22:41;;;;;;;25.00;17.10;;;-3.60;99.90;;;;;;5072008;28;20223;-77
2021/12/28 00:25:11;;;;;;;21.47;15.43;;;-3.60;99.90;;;;;;5072413;28;20504;-76
2021/12/28 00:27:37;;;;;;;28.90;15.73;;;-3.70;99.90;;;;;;5076052;28;20102;-75
2021/12/28 00:30:05;;;;;;;24.90;16.23;;;-3.60;99.90;;;;;;5075892;28;20048;-74
2021/12/28 00:32:32;;;;;;;28.10;19.27;;;-3.60;99.90;;;;;;5075923;28;20098;-75
2021/12/28 00:35:01;;;;;;;22.97;16.00;;;-3.60;99.90;;;;;;5075007;28;20496;-76
2021/12/28 00:37:31;;;;;;;17.93;14.67;;;-3.60;99.90;;;;;;5075606;28;20496;-77
2021/12/28 00:39:57;;;;;;;22.97;17.40;;;-3.60;99.90;;;;;;5075567;28;20052;-75
2021/12/28 00:42:24;;;;;;;23.57;15.90;;;-3.60;99.90;;;;;;5075580;28;20558;-76
2021/12/28 00:44:51;;;;;;;32.57;18.03;;;-3.70;99.90;;;;;;5075036;28;20083;-77
2021/12/28 00:47:17;;;;;;;26.67;16.83;;;-3.70;99.90;;;;;;5075655;28;20048;-75
2021/12/28 00:49:44;;;;;;;25.27;14.37;;;-3.70;99.90;;;;;;5075741;28;20053;-76
2021/12/28 00:52:11;;;;;;;28.57;16.43;;;-3.70;99.90;;;;;;5075322;28;20044;-77
2021/12/28 00:54:38;;;;;;;20.33;14.53;;;-3.80;99.90;;;;;;5074973;28;20048;-76
2021/12/28 00:57:06;;;;;;;25.10;18.57;;;-3.80;99.90;;;;;;5075337;28;20045;-76
2021/12/28 00:59:33;;;;;;;28.73;16.00;;;-3.90;99.90;;;;;;5075278;28;20102;-75
2021/12/28 01:02:00;;;;;;;27.97;18.50;;;-3.90;99.90;;;;;;5075485;28;20205;-75
2021/12/28 01:04:27;;;;;;;21.87;17.43;;;-3.90;99.90;;;;;;5075035;28;20396;-77
2021/12/28 01:06:53;;;;;;;25.27;15.33;;;-3.90;99.90;;;;;;5075034;28;20045;-77
2021/12/28 01:09:20;;;;;;;21.47;12.33;;;-3.80;99.90;;;;;;5075211;28;20040;-77
2021/12/28 01:11:48;;;;;;;32.70;17.73;;;-3.90;99.90;;;;;;5075256;28;20447;-76
2021/12/28 01:14:18;;;;;;;33.47;20.93;;;-3.80;99.90;;;;;;5074674;28;20049;-76
2021/12/28 01:16:44;;;;;;;20.73;14.97;;;-3.80;99.90;;;;;;5075272;28;20048;-77
2021/12/28 01:19:11;;;;;;;24.03;15.33;;;-3.90;99.90;;;;;;5074933;28;20393;-77
2021/12/28 01:21:37;;;;;;;22.83;16.57;;;-3.90;99.90;;;;;;5075106;28;20048;-76
2021/12/28 01:24:05;;;;;;;30.13;15.10;;;-3.90;99.90;;;;;;5074574;28;20044;-78
2021/12/28 01:26:32;;;;;;;22.83;16.33;;;-3.90;99.90;;;;;;5074762;28;20070;-75
2021/12/28 01:29:00;;;;;;;25.03;14.80;;;-3.90;99.90;;;;;;5075200;28;20048;-74
2021/12/28 01:31:26;;;;;;;18.97;12.83;;;-3.90;99.90;;;;;;5075513;28;20044;-74
2021/12/28 01:33:53;;;;;;;22.23;12.03;;;-3.90;99.90;;;;;;5075178;28;20044;-73
2021/12/28 01:36:20;;;;;;;21.37;16.17;;;-3.90;99.90;;;;;;5073935;28;20064;-74
2021/12/28 01:38:46;;;;;;;18.93;16.50;;;-3.90;99.90;;;;;;5074979;28;20041;-74
2021/12/28 01:41:13;;;;;;;21.57;15.70;;;-3.90;99.90;;;;;;5074662;28;20048;-74
2021/12/28 01:43:42;;;;;;;19.60;14.83;;;-4.00;99.90;;;;;;5074283;28;20048;-74
2021/12/28 01:46:10;;;;;;;25.23;13.90;;;-4.00;99.90;;;;;;5073986;28;20051;-74
2021/12/28 01:48:40;;;;;;;33.03;13.97;;;-4.00;99.90;;;;;;5074576;28;20053;-75
2021/12/28 01:51:09;;;;;;;20.47;16.93;;;-3.90;99.90;;;;;;5074313;28;20044;-76
2021/12/28 01:53:36;;;;;;;20.57;16.07;;;-3.90;99.90;;;;;;5074204;28;20044;-75
2021/12/28 01:56:06;;;;;;;21.93;16.07;;;-3.90;99.90;;;;;;5073923;28;20101;-75
2021/12/28 01:58:33;;;;;;;30.17;17.67;;;-4.00;99.90;;;;;;5074244;28;20049;-75
2021/12/28 02:01:00;;;;;;;22.63;17.17;;;-4.00;99.90;;;;;;5074115;28;20044;-77
2021/12/28 02:03:30;;;;;;;28.77;19.40;;;-4.00;99.90;;;;;;5074100;28;20185;-76
2021/12/28 02:05:59;;;;;;;22.10;17.53;;;-4.00;99.90;;;;;;5073281;28;20045;-75
2021/12/28 02:08:27;;;;;;;28.30;20.27;;;-4.10;99.90;;;;;;5074213;28;20489;-75
2021/12/28 02:10:56;;;;;;;25.57;16.47;;;-4.10;99.90;;;;;;5073910;28;20040;-76
2021/12/28 02:13:24;;;;;;;22.97;15.77;;;-4.10;99.90;;;;;;5074028;28;20101;-76
2021/12/28 02:15:51;;;;;;;27.47;16.77;;;-4.00;99.90;;;;;;5073066;28;20052;-75
2021/12/28 02:18:20;;;;;;;26.47;16.10;;;-4.00;99.90;;;;;;5073720;28;20470;-75
2021/12/28 02:20:49;;;;;;;27.20;15.00;;;-4.10;99.90;;;;;;5073475;28;20373;-76
2021/12/28 02:23:17;;;;;;;34.87;22.37;;;-4.00;99.90;;;;;;5074021;28;20052;-74
2021/12/28 02:25:44;;;;;;;21.17;15.63;;;-4.10;99.90;;;;;;5073088;28;20098;-76
2021/12/28 02:28:13;;;;;;;44.00;20.90;;;-4.20;99.90;;;;;;5073528;28;20041;-75
2021/12/28 02:30:42;;;;;;;21.53;16.27;;;-4.20;99.90;;;;;;5073512;28;20048;-76
2021/12/28 02:33:09;;;;;;;21.73;17.03;;;-4.20;99.90;;;;;;5073349;28;20044;-75
2021/12/28 02:35:36;;;;;;;31.27;16.70;;;-4.20;99.90;;;;;;5072562;28;20102;-76
2021/12/28 02:38:05;;;;;;;30.13;17.17;;;-4.10;99.90;;;;;;5073408;28;20049;-73
2021/12/28 02:40:34;;;;;;;36.80;18.40;;;-4.20;99.90;;;;;;5073245;28;20048;-74
2021/12/28 02:43:03;;;;;;;26.17;16.03;;;-4.20;99.90;;;;;;5073268;28;20090;-75
2021/12/28 02:45:32;;;;;;;25.60;20.10;;;-4.20;99.90;;;;;;5072363;28;20534;-74
2021/12/28 02:47:59;;;;;;;19.90;17.33;;;-4.20;99.90;;;;;;5072090;28;20044;-75
2021/12/28 02:50:28;;;;;;;27.30;18.10;;;-4.20;99.90;;;;;;5073200;28;20474;-75
2021/12/28 02:53:00;;;;;;;27.43;17.70;;;-4.20;99.90;;;;;;5073123;28;20547;-74
2021/12/28 02:55:34;;;;;;;19.10;17.10;;;-4.20;99.90;;;;;;5071203;28;20056;-73
2021/12/28 02:58:03;;;;;;;25.77;17.03;;;-4.10;99.90;;;;;;5072959;28;20044;-74
2021/12/28 03:00:38;;;;;;;28.70;20.03;;;-4.10;99.90;;;;;;5072888;28;20044;-73
2021/12/28 03:03:07;;;;;;;17.60;14.73;;;-4.20;99.90;;;;;;5073073;28;20045;-74
2021/12/28 03:05:34;;;;;;;24.13;18.03;;;-4.20;99.90;;;;;;5072443;28;20051;-74
2021/12/28 03:08:01;;;;;;;25.77;15.93;;;-4.20;99.90;;;;;;5073085;28;20045;-76
2021/12/28 03:10:27;;;;;;;19.67;15.23;;;-4.20;99.90;;;;;;5072934;28;20049;-74
2021/12/28 03:12:55;;;;;;;26.73;15.97;;;-4.20;99.90;;;;;;5072510;28;20078;-74
2021/12/28 03:15:22;;;;;;;27.53;19.33;;;-4.20;99.90;;;;;;5072385;28;20106;-73
2021/12/28 03:17:48;;;;;;;24.77;16.60;;;-4.30;99.90;;;;;;5072751;28;20208;-74
2021/12/28 03:20:16;;;;;;;31.33;16.90;;;-4.20;99.90;;;;;;5072992;28;20089;-73
2021/12/28 03:22:44;;;;;;;37.60;16.53;;;-4.20;99.90;;;;;;5072979;28;20121;-74
2021/12/28 03:25:12;;;;;;;17.00;15.13;;;-4.30;99.90;;;;;;5071933;28;20101;-74
2021/12/28 03:27:40;;;;;;;15.60;13.97;;;-4.20;99.90;;;;;;5072247;28;20060;-73
2021/12/28 03:30:15;;;;;;;28.20;19.13;;;-4.20;99.90;;;;;;5072249;28;20455;-74
2021/12/28 03:32:43;;;;;;;24.03;16.27;;;-4.20;99.90;;;;;;5072228;28;20052;-73
2021/12/28 03:35:13;;;;;;;23.90;17.57;;;-4.20;99.90;;;;;;5071831;28;20045;-74
2021/12/28 03:37:40;;;;;;;23.63;13.53;;;-4.20;99.90;;;;;;5072197;28;20098;-75
2021/12/28 03:40:16;;;;;;;15.67;14.10;;;-4.20;99.90;;;;;;5072166;28;20098;-76
2021/12/28 03:42:43;;;;;;;27.57;18.80;;;-4.20;99.90;;;;;;5072352;28;20041;-76
2021/12/28 03:45:13;;;;;;;39.93;18.40;;;-4.20;99.90;;;;;;5071794;28;20048;-75
2021/12/28 03:47:43;;;;;;;20.20;16.50;;;-4.10;99.90;;;;;;5072299;28;20060;-75
2021/12/28 03:50:11;;;;;;;18.60;15.83;;;-4.10;99.90;;;;;;5072343;28;20506;-76
2021/12/28 03:52:39;;;;;;;26.30;16.27;;;-4.10;99.90;;;;;;5072186;28;20044;-73
2021/12/28 03:55:10;;;;;;;22.47;16.13;;;-4.10;99.90;;;;;;5071716;28;20055;-73
2021/12/28 03:57:39;;;;;;;30.92;18.58;;;-4.10;99.90;;;;;;5072097;28;20055;-74
2021/12/28 04:00:07;;;;;;;20.83;18.70;;;-4.10;99.90;;;;;;5071987;28;20044;-73
2021/12/28 04:02:35;;;;;;;24.93;15.77;;;-4.10;99.90;;;;;;5072416;28;20086;-75
2021/12/28 04:05:02;;;;;;;26.57;18.17;;;-4.20;99.90;;;;;;5071935;28;20053;-74
2021/12/28 04:07:29;;;;;;;28.50;20.77;;;-4.20;99.90;;;;;;5072356;28;20120;-74
2021/12/28 04:10:01;;;;;;;19.97;15.03;;;-4.10;99.90;;;;;;5072326;28;20049;-75
2021/12/28 04:12:29;;;;;;;40.93;22.33;;;-4.10;99.90;;;;;;5072212;28;20076;-74
2021/12/28 04:14:57;;;;;;;21.90;12.60;;;-4.10;99.90;;;;;;5071434;28;20070;-74
2021/12/28 04:17:23;;;;;;;24.23;19.53;;;-4.10;99.90;;;;;;5071864;28;20055;-76
2021/12/28 04:19:51;;;;;;;19.07;17.40;;;-4.10;99.90;;;;;;5072261;28;20045;-76
2021/12/28 04:22:18;;;;;;;23.93;16.43;;;-4.10;99.90;;;;;;5072538;28;20049;-74
2021/12/28 04:24:45;;;;;;;28.47;17.03;;;-4.10;99.90;;;;;;5072223;28;20044;-77
2021/12/28 04:27:13;;;;;;;20.17;18.00;;;-4.10;99.90;;;;;;5073330;28;20087;-75
2021/12/28 04:29:40;;;;;;;26.97;20.50;;;-4.10;99.90;;;;;;5073421;28;20070;-74
2021/12/28 04:32:08;;;;;;;21.80;17.37;;;-4.10;99.90;;;;;;5072757;28;20049;-75
2021/12/28 04:34:37;;;;;;;32.63;18.83;;;-4.10;99.90;;;;;;5072233;28;20041;-72
2021/12/28 04:37:05;;;;;;;24.87;16.63;;;-4.10;99.90;;;;;;5072026;28;20045;-73
2021/12/28 04:39:32;;;;;;;16.87;15.27;;;-4.10;99.90;;;;;;5071864;28;20045;-74
2021/12/28 04:41:59;;;;;;;18.90;16.87;;;-4.10;99.90;;;;;;5071874;28;20040;-74
2021/12/28 04:44:25;;;;;;;26.90;18.23;;;-4.10;99.90;;;;;;5071236;28;20083;-74
2021/12/28 04:46:53;;;;;;;24.30;16.97;;;-4.00;99.90;;;;;;5071554;28;20493;-74
2021/12/28 04:49:22;;;;;;;35.30;22.87;;;-4.00;99.90;;;;;;5071809;28;20049;-74
2021/12/28 04:51:49;;;;;;;27.57;17.17;;;-4.10;99.90;;;;;;5071923;28;20048;-74
2021/12/28 04:54:18;;;;;;;24.43;17.83;;;-4.00;99.90;;;;;;5071052;28;20056;-74
2021/12/28 04:56:46;;;;;;;19.73;15.43;;;-4.00;99.90;;;;;;5071528;28;20087;-75
2021/12/28 04:59:16;;;;;;;25.97;18.83;;;-4.00;99.90;;;;;;5071792;28;20041;-74
2021/12/28 05:01:43;;;;;;;21.30;16.37;;;-4.00;99.90;;;;;;5071969;28;20045;-76
2021/12/28 05:04:10;;;;;;;24.13;19.10;;;-4.00;99.90;;;;;;5070973;28;20496;-74
2021/12/28 05:06:37;;;;;;;34.50;18.23;;;-3.90;99.90;;;;;;5071490;28;20102;-75
2021/12/28 05:09:06;;;;;;;30.67;17.50;;;-3.90;99.90;;;;;;5071496;28;20048;-74
2021/12/28 05:11:34;;;;;;;29.63;16.50;;;-3.90;99.90;;;;;;5072358;28;20075;-74
2021/12/28 05:14:02;;;;;;;24.63;19.40;;;-3.90;99.90;;;;;;5074433;28;20541;-75
2021/12/28 05:16:30;;;;;;;38.73;22.63;;;-3.90;99.90;;;;;;5075234;28;20045;-73
2021/12/28 05:18:57;;;;;;;29.73;17.23;;;-3.90;99.90;;;;;;5075544;28;20063;-74
2021/12/28 05:21:25;;;;;;;29.03;21.90;;;-3.80;99.90;;;;;;5075041;28;20048;-73
2021/12/28 05:23:51;;;;;;;29.10;21.47;;;-3.80;99.90;;;;;;5075024;28;20044;-73
2021/12/28 05:26:18;;;;;;;26.23;18.23;;;-3.80;99.90;;;;;;5074430;28;20503;-74
2021/12/28 05:28:46;;;;;;;23.97;17.90;;;-3.80;99.90;;;;;;5075067;28;20086;-74
2021/12/28 05:31:14;;;;;;;27.53;18.67;;;-3.80;99.90;;;;;;5074787;28;20045;-75
2021/12/28 05:33:40;;;;;;;28.87;16.37;;;-3.80;99.90;;;;;;5074782;28;20098;-75
2021/12/28 05:36:08;;;;;;;24.43;16.57;;;-3.90;99.90;;;;;;5074098;28;20057;-75
2021/12/28 05:38:35;;;;;;;16.43;14.57;;;-3.90;99.90;;;;;;5074557;28;20477;-76
2021/12/28 05:41:02;;;;;;;32.13;15.13;;;-3.90;99.90;;;;;;5074804;28;20122;-74
2021/12/28 05:43:28;;;;;;;28.90;17.10;;;-3.80;99.90;;;;;;5074632;28;20098;-76
2021/12/28 05:45:56;;;;;;;26.23;17.57;;;-3.80;99.90;;;;;;5073986;28;20086;-76
2021/12/28 05:48:23;;;;;;;33.10;20.30;;;-3.80;99.90;;;;;;5074701;28;20045;-76
2021/12/28 05:50:50;;;;;;;32.77;16.07;;;-3.80;99.90;;;;;;5074308;28;20074;-75
2021/12/28 05:53:17;;;;;;;26.97;15.83;;;-3.80;99.90;;;;;;5074145;28;20044;-75
2021/12/28 05:55:44;;;;;;;30.73;18.87;;;-3.70;99.90;;;;;;5073859;28;20117;-75
2021/12/28 05:58:11;;;;;;;22.20;16.13;;;-3.70;99.90;;;;;;5074285;28;20053;-75
2021/12/28 06:00:38;;;;;;;22.20;16.97;;;-3.60;99.90;;;;;;5075144;28;20049;-74
2021/12/28 06:03:06;;;;;;;26.97;15.13;;;-3.60;99.90;;;;;;5074905;28;20048;-75
2021/12/28 06:05:33;;;;;;;36.30;20.10;;;-3.60;99.90;;;;;;5073304;28;20094;-75
2021/12/28 06:07:59;;;;;;;24.27;21.83;;;-3.60;99.90;;;;;;5073989;28;20102;-75
2021/12/28 06:10:26;;;;;;;27.30;17.30;;;-3.60;99.90;;;;;;5074291;28;20048;-75
2021/12/28 06:12:53;;;;;;;29.93;22.33;;;-3.60;99.90;;;;;;5073897;28;20546;-76
2021/12/28 06:15:20;;;;;;;22.30;15.50;;;-3.60;99.90;;;;;;5073557;28;20060;-75
2021/12/28 06:17:46;;;;;;;26.30;16.93;;;-3.60;99.90;;;;;;5073798;28;20090;-75
2021/12/28 06:20:15;;;;;;;28.80;15.87;;;-3.50;99.90;;;;;;5073751;28;20048;-75
2021/12/28 06:22:41;;;;;;;15.57;10.60;;;-3.50;99.90;;;;;;5073549;28;20118;-74
2021/12/28 06:25:08;;;;;;;20.50;15.90;;;-3.50;99.90;;;;;;5073567;28;20044;-74
2021/12/28 06:27:35;;;;;;;23.27;14.90;;;-3.50;99.90;;;;;;5073819;28;20071;-74
2021/12/28 06:30:02;;;;;;;29.77;18.43;;;-3.50;99.90;;;;;;5073588;28;20044;-75
2021/12/28 06:32:29;;;;;;;31.20;18.67;;;-3.50;99.90;;;;;;5073652;28;20049;-76
2021/12/28 06:34:55;;;;;;;30.07;18.27;;;-3.40;99.90;;;;;;5072802;28;20044;-74
2021/12/28 06:37:23;;;;;;;33.27;18.83;;;-3.40;99.90;;;;;;5073611;28;20462;-74
2021/12/28 06:39:50;;;;;;;24.77;17.33;;;-3.50;99.90;;;;;;5073306;28;20485;-74
2021/12/28 06:42:16;;;;;;;29.27;18.37;;;-3.40;99.90;;;;;;5073614;28;20052;-75
2021/12/28 06:44:45;;;;;;;19.20;17.23;;;-3.40;99.90;;;;;;5072540;28;20518;-74
2021/12/28 06:47:12;;;;;;;27.20;21.27;;;-3.30;99.90;;;;;;5073220;28;20040;-75
2021/12/28 06:49:39;;;;;;;28.50;18.13;;;-3.30;99.90;;;;;;5073064;28;20071;-75
2021/12/28 06:52:06;;;;;;;29.13;19.77;;;-3.30;99.90;;;;;;5073190;28;20048;-75
2021/12/28 06:54:37;;;;;;;21.47;15.77;;;-3.30;99.90;;;;;;5072612;28;20080;-75
2021/12/28 06:57:04;;;;;;;21.77;16.57;;;-3.30;99.90;;;;;;5073254;28;20076;-73
2021/12/28 06:59:31;;;;;;;25.00;18.23;;;-3.30;99.90;;;;;;5073003;28;20053;-73
2021/12/28 07:01:58;;;;;;;33.50;20.23;;;-3.30;99.90;;;;;;5072885;28;20049;-73
2021/12/28 07:04:24;;;;;;;29.00;19.47;;;-3.20;99.90;;;;;;5072849;28;20040;-74
2021/12/28 07:06:51;;;;;;;23.83;19.53;;;-3.20;99.90;;;;;;5072826;28;20102;-74
2021/12/28 07:09:18;;;;;;;37.07;23.60;;;-3.20;99.90;;;;;;5072878;28;20090;-75
2021/12/28 07:11:46;;;;;;;21.77;19.33;;;-3.20;99.90;;;;;;5072786;28;20044;-75
2021/12/28 07:14:12;;;;;;;28.40;16.97;;;-3.10;99.90;;;;;;5072299;28;20049;-76
2021/12/28 07:16:39;;;;;;;23.67;17.23;;;-3.20;99.90;;;;;;5072351;28;20041;-75
2021/12/28 07:19:10;;;;;;;32.43;17.27;;;-3.20;99.90;;;;;;5072598;28;20114;-76
2021/12/28 07:21:36;;;;;;;19.30;14.97;;;-3.10;99.90;;;;;;5072804;28;20055;-76
2021/12/28 07:24:03;;;;;;;30.70;17.03;;;-3.10;99.90;;;;;;5071800;28;20485;-75
2021/12/28 07:26:30;;;;;;;26.87;18.50;;;-3.10;99.90;;;;;;5071957;28;20048;-72
2021/12/28 07:28:58;;;;;;;28.77;18.40;;;-3.00;99.90;;;;;;5072272;28;20052;-74
2021/12/28 07:31:24;;;;;;;23.17;19.07;;;-3.10;99.90;;;;;;5072156;28;20041;-74
2021/12/28 07:33:51;;;;;;;30.00;19.00;;;-3.00;99.90;;;;;;5071815;28;20127;-78
2021/12/28 07:36:19;;;;;;;23.73;15.43;;;-3.00;99.90;;;;;;5072001;28;20055;-73
2021/12/28 07:38:45;;;;;;;26.27;17.30;;;-3.00;99.90;;;;;;5072061;28;20102;-75
2021/12/28 07:41:12;;;;;;;32.50;18.80;;;-2.90;99.90;;;;;;5072193;28;20098;-74
2021/12/28 07:43:39;;;;;;;34.77;20.03;;;-2.90;99.90;;;;;;5072364;28;20044;-74
2021/12/28 07:46:07;;;;;;;25.40;19.47;;;-2.80;99.90;;;;;;5071504;28;20044;-72
2021/12/28 07:48:34;;;;;;;25.27;18.47;;;-2.80;99.90;;;;;;5072498;28;20049;-74
2021/12/28 07:51:01;;;;;;;30.50;18.07;;;-2.70;99.90;;;;;;5072098;28;20260;-74
2021/12/28 07:53:28;;;;;;;19.33;15.23;;;-2.70;99.90;;;;;;5072378;28;20477;-74
2021/12/28 07:55:57;;;;;;;35.57;20.53;;;-2.70;99.90;;;;;;5071592;28;20454;-74
2021/12/28 07:58:24;;;;;;;29.07;19.40;;;-2.70;99.90;;;;;;5072082;28;20090;-74
2021/12/28 08:00:51;;;;;;;23.90;19.93;;;-2.70;99.90;;;;;;5072391;28;20048;-74
2021/12/28 08:03:19;;;;;;;18.57;16.70;;;-2.70;99.90;;;;;;5072517;28;20456;-75
2021/12/28 08:05:46;;;;;;;32.03;19.07;;;-2.60;99.90;;;;;;5071558;28;20595;-73
2021/12/28 08:08:13;;;;;;;32.47;21.67;;;-2.60;99.90;;;;;;5072009;28;20098;-73
2021/12/28 08:10:40;;;;;;;35.77;20.67;;;-2.60;99.90;;;;;;5072447;28;20048;-73
2021/12/28 08:13:07;;;;;;;28.23;19.77;;;-2.60;99.90;;;;;;5071693;28;20794;-73
2021/12/28 08:15:33;;;;;;;36.10;19.23;;;-2.60;99.90;;;;;;5073058;28;20048;-78
2021/12/28 08:18:02;;;;;;;31.07;18.10;;;-2.60;99.90;;;;;;5073628;28;20141;-72
2021/12/28 08:20:31;;;;;;;25.77;17.80;;;-2.60;99.90;;;;;;5071806;28;20431;-78
2021/12/28 08:22:58;;;;;;;29.33;18.40;;;-2.60;99.90;;;;;;5075047;28;20094;-79
2021/12/28 08:25:25;;;;;;;18.30;16.37;;;-2.60;99.90;;;;;;5071708;28;20051;-73
2021/12/28 08:27:52;;;;;;;24.37;17.10;;;-2.60;99.90;;;;;;5071618;28;20577;-75
2021/12/28 08:30:21;;;;;;;34.60;19.83;;;-2.50;99.90;;;;;;5071737;28;20075;-75
2021/12/28 08:32:48;;;;;;;36.73;21.47;;;-2.40;99.90;;;;;;5071675;28;20098;-75
2021/12/28 08:35:15;;;;;;;29.13;21.87;;;-2.40;99.90;;;;;;5071308;28;20048;-74
2021/12/28 08:37:44;;;;;;;36.20;19.50;;;-2.30;99.90;;;;;;5071731;28;20109;-73
2021/12/28 08:40:14;;;;;;;31.97;19.53;;;-2.30;99.90;;;;;;5071518;28;20090;-74
2021/12/28 08:42:40;;;;;;;24.70;19.57;;;-2.20;99.90;;;;;;5071703;28;20086;-73
2021/12/28 08:45:08;;;;;;;27.27;17.77;;;-2.20;99.90;;;;;;5071444;28;20045;-73
2021/12/28 08:47:35;;;;;;;34.17;22.83;;;-2.10;99.90;;;;;;5075007;28;20101;-70
2021/12/28 08:50:02;;;;;;;31.90;19.07;;;-2.10;99.90;;;;;;5075303;28;20060;-71
2021/12/28 08:52:29;;;;;;;33.47;20.10;;;-1.90;99.90;;;;;;5075395;28;20049;-70
2021/12/28 08:54:57;;;;;;;29.33;19.03;;;-1.90;99.90;;;;;;5074886;28;20040;-74
2021/12/28 08:57:24;;;;;;;34.80;18.00;;;-1.90;99.90;;;;;;5075392;28;20436;-75
2021/12/28 08:59:51;;;;;;;28.67;19.10;;;-1.70;99.90;;;;;;5075190;28;20087;-76
2021/12/28 09:02:17;;;;;;;32.83;18.97;;;-1.60;99.90;;;;;;5075456;28;20546;-72
2021/12/28 09:04:46;;;;;;;34.83;19.40;;;-1.60;99.90;;;;;;5074355;28;20079;-72
2021/12/28 09:07:13;;;;;;;28.03;18.13;;;-1.50;99.90;;;;;;5074620;28;20079;-73
2021/12/28 09:09:40;;;;;;;39.13;20.73;;;-1.50;99.90;;;;;;5074898;28;20074;-76
2021/12/28 09:12:09;;;;;;;30.77;21.47;;;-1.60;99.90;;;;;;5074925;28;20070;-77
2021/12/28 09:14:36;;;;;;;32.27;20.93;;;-1.50;99.90;;;;;;5074637;28;20045;-77
2021/12/28 09:17:04;;;;;;;35.27;19.50;;;-1.50;99.90;;;;;;5074979;28;20063;-72
2021/12/28 09:19:31;;;;;;;24.03;14.70;;;-1.50;99.90;;;;;;5074541;28;20052;-75
2021/12/28 09:21:58;;;;;;;31.53;14.33;;;-1.50;99.90;;;;;;5074802;28;20084;-72
2021/12/28 09:24:25;;;;;;;30.13;19.33;;;-1.60;99.90;;;;;;5074228;28;20197;-71
2021/12/28 09:26:52;;;;;;;30.80;17.93;;;-1.60;99.90;;;;;;5075009;28;20094;-76
2021/12/28 09:29:20;;;;;;;37.20;21.43;;;-1.60;99.90;;;;;;5074678;28;20040;-71
2021/12/28 09:31:46;;;;;;;40.43;19.73;;;-1.60;99.90;;;;;;5074806;28;20041;-71
2021/12/28 09:34:13;;;;;;;36.53;18.77;;;-1.60;99.90;;;;;;5073514;28;20090;-73
2021/12/28 09:36:40;;;;;;;33.13;16.00;;;-1.60;99.90;;;;;;5075833;28;20050;-72
2021/12/28 09:39:07;;;;;;;30.00;16.50;;;-1.60;99.90;;;;;;5078532;28;20098;-72
2021/12/28 09:41:34;;;;;;;38.27;21.77;;;-1.60;99.90;;;;;;5076322;28;20448;-73
2021/12/28 09:44:01;;;;;;;38.73;20.73;;;-1.60;99.90;;;;;;5076324;28;20447;-75
2021/12/28 09:46:29;;;;;;;30.60;17.80;;;-1.50;99.90;;;;;;5078180;28;20052;-83
2021/12/28 09:48:56;;;;;;;24.27;15.03;;;-1.40;99.90;;;;;;5079947;28;20049;-77
2021/12/28 09:51:23;;;;;;;25.57;15.07;;;-1.40;99.90;;;;;;5081493;28;20056;-77
2021/12/28 09:53:52;;;;;;;28.33;18.60;;;-1.40;99.90;;;;;;5085889;28;20094;-76
2021/12/28 09:56:19;;;;;;;27.40;17.93;;;-1.40;99.90;;;;;;5073518;28;20044;-72
2021/12/28 09:58:45;;;;;;;24.50;18.37;;;-1.30;99.90;;;;;;5074241;28;20052;-76
2021/12/28 10:01:12;;;;;;;31.00;18.70;;;-1.30;99.90;;;;;;5074185;28;20051;-75
2021/12/28 10:03:40;;;;;;;32.07;21.90;;;-1.30;99.90;;;;;;5074573;28;20067;-74
2021/12/28 10:06:18;;;;;;;27.23;19.43;;;-1.30;99.90;;;;;;5073604;28;20177;-75
2021/12/28 10:08:45;;;;;;;31.23;19.23;;;-1.20;99.90;;;;;;5073969;28;20052;-74
2021/12/28 10:11:12;;;;;;;27.90;20.57;;;-1.10;99.90;;;;;;5074569;28;20467;-75
2021/12/28 10:13:39;;;;;;;31.17;21.23;;;-1.20;99.90;;;;;;5074029;28;20052;-72
2021/12/28 10:16:06;;;;;;;35.93;18.83;;;-1.20;99.90;;;;;;5073395;28;20049;-77
2021/12/28 10:18:33;;;;;;;41.30;21.50;;;-1.20;99.90;;;;;;5073723;28;20257;-74
2021/12/28 10:21:03;;;;;;;34.60;21.43;;;-1.20;99.90;;;;;;5073874;28;20048;-75
2021/12/28 10:23:32;;;;;;;25.33;19.50;;;-1.10;99.90;;;;;;5074031;28;20052;-75
2021/12/28 10:26:01;;;;;;;24.83;14.73;;;-1.10;99.90;;;;;;5074506;28;20098;-75
2021/12/28 10:28:32;;;;;;;33.90;21.77;;;-1.00;99.90;;;;;;5073534;28;20044;-75
2021/12/28 10:31:03;;;;;;;29.23;16.05;;;-1.10;99.90;;;;;;5073902;28;20463;-74
2021/12/28 10:33:32;;;;;;;31.00;17.67;;;-1.10;99.90;;;;;;5073731;28;20492;-75
2021/12/28 10:36:03;;;;;;;30.77;20.53;;;-1.00;99.90;;;;;;5072734;28;20048;-75
2021/12/28 10:38:32;;;;;;;38.27;20.43;;;-1.00;99.90;;;;;;5073205;28;20048;-75
2021/12/28 10:41:01;;;;;;;25.53;15.03;;;-0.90;99.90;;;;;;5072978;28;20048;-74
2021/12/28 10:43:29;;;;;;;22.77;18.57;;;-0.80;99.90;;;;;;5074196;28;20102;-76
2021/12/28 10:46:01;;;;;;;36.37;21.80;;;-0.80;99.90;;;;;;5072630;28;20492;-74
2021/12/28 10:48:31;;;;;;;40.85;21.77;;;-0.80;99.90;;;;;;5073438;28;20048;-75
2021/12/28 10:51:01;;;;;;;29.53;20.87;;;-0.70;99.90;;;;;;5073108;28;20044;-75
2021/12/28 10:53:36;;;;;;;32.20;17.70;;;-0.70;99.90;;;;;;5073141;28;20055;-74
2021/12/28 10:56:06;;;;;;;30.23;21.77;;;-0.70;99.90;;;;;;5073083;28;20058;-75
2021/12/28 10:58:40;;;;;;;29.47;19.00;;;-0.70;99.90;;;;;;5073616;28;20052;-73
2021/12/28 11:01:11;;;;;;;36.43;21.07;;;-0.60;99.90;;;;;;5073051;28;20040;-74
2021/12/28 11:03:40;;;;;;;32.85;18.92;;;-0.60;99.90;;;;;;5072848;28;20514;-74
2021/12/28 11:06:10;;;;;;;32.37;16.70;;;-0.50;99.90;;;;;;5072147;28;20493;-74
2021/12/28 11:08:39;;;;;;;30.50;17.07;;;-0.50;99.90;;;;;;5072087;28;20044;-75
2021/12/28 11:11:10;;;;;;;29.77;16.57;;;-0.50;99.90;;;;;;5072826;28;20044;-75
2021/12/28 11:13:37;;;;;;;35.83;17.08;;;-0.40;99.90;;;;;;5072609;28;20497;-75
2021/12/28 11:16:08;;;;;;;32.50;19.57;;;-0.40;99.90;;;;;;5071916;28;20044;-75
2021/12/28 11:18:38;;;;;;;31.83;18.27;;;-0.40;99.90;;;;;;5074056;28;20048;-75
2021/12/28 11:21:12;;;;;;;27.70;20.37;;;-0.30;99.90;;;;;;5074134;28;20718;-75
2021/12/28 11:23:41;;;;;;;35.73;22.43;;;-0.20;99.90;;;;;;5072977;28;20447;-75
2021/12/28 11:26:12;;;;;;;33.13;18.80;;;-0.20;99.90;;;;;;5072837;28;20041;-74
2021/12/28 11:28:41;;;;;;;34.37;21.73;;;-0.20;99.90;;;;;;5072339;28;20091;-74
2021/12/28 11:31:12;;;;;;;27.30;15.33;;;-0.20;99.90;;;;;;5072463;28;20489;-76
2021/12/28 11:33:44;;;;;;;32.50;22.43;;;-0.10;99.90;;;;;;5072336;28;20102;-75
2021/12/28 11:36:12;;;;;;;36.60;19.47;;;-0.10;99.90;;;;;;5072120;28;20295;-75
2021/12/28 11:38:40;;;;;;;27.67;17.03;;;-0.10;99.90;;;;;;5072424;28;20048;-74
2021/12/28 11:41:08;;;;;;;27.37;17.67;;;-0.10;99.90;;;;;;5072261;28;20466;-73
2021/12/28 11:43:35;;;;;;;38.03;21.13;;;-0.10;99.90;;;;;;5072513;28;20051;-74
2021/12/28 11:46:02;;;;;;;37.00;23.27;;;0.00;99.90;;;;;;5072275;28;20130;-75
2021/12/28 11:48:29;;;;;;;34.90;20.27;;;0.00;99.90;;;;;;5075742;28;20484;-75
2021/12/28 11:50:55;;;;;;;27.03;16.67;;;0.10;99.90;;;;;;5073195;28;20040;-74
2021/12/28 11:53:23;;;;;;;40.50;19.60;;;0.10;99.90;;;;;;5072199;28;20070;-74
2021/12/28 11:55:52;;;;;;;34.10;16.13;;;0.10;99.90;;;;;;5071456;28;20044;-74
2021/12/28 11:58:18;;;;;;;39.10;18.73;;;0.20;99.90;;;;;;5072032;28;20049;-74
2021/12/28 12:00:47;;;;;;;35.73;21.93;;;0.30;99.90;;;;;;5073063;28;20044;-74
2021/12/28 12:03:32;;;;;;;41.97;22.70;;;0.40;99.90;;;;;;5072025;28;20047;-74
2021/12/28 12:05:59;;;;;;;30.43;18.43;;;0.40;99.90;;;;;;5071365;28;20052;-74
2021/12/28 12:08:26;;;;;;;43.10;20.77;;;0.40;99.90;;;;;;5072254;28;20544;-74
2021/12/28 12:11:02;;;;;;;28.23;18.03;;;0.40;99.90;;;;;;5071993;28;20492;-73
2021/12/28 12:13:31;;;;;;;31.53;18.63;;;0.40;99.90;;;;;;5072681;28;20110;-73
2021/12/28 12:16:00;;;;;;;34.63;20.90;;;0.50;99.90;;;;;;5071304;28;20045;-74
2021/12/28 12:18:29;;;;;;;27.60;18.97;;;0.50;99.90;;;;;;5071427;28;20041;-73
2021/12/28 12:21:03;;;;;;;31.80;17.47;;;0.50;99.90;;;;;;5080146;28;20048;-74
2021/12/28 12:23:41;;;;;;;31.30;20.07;;;0.50;99.90;;;;;;5079958;28;20420;-74
2021/12/28 12:26:12;;;;;;;28.83;15.77;;;0.60;99.90;;;;;;5075452;28;20650;-72
2021/12/28 12:28:46;;;;;;;43.22;21.33;;;0.60;99.90;;;;;;5076183;28;20048;-73
2021/12/28 12:31:31;;;;;;;28.90;18.03;;;0.60;99.90;;;;;;5075746;28;20064;-74
2021/12/28 12:33:59;;;;;;;34.90;20.30;;;0.70;99.90;;;;;;5075790;28;20051;-74